createdAt,value
2018-06-16T00:00:30.976Z,947.40
2018-06-16T00:02:57.272Z,947.38
2018-06-16T00:05:23.565Z,947.37
2018-06-16T00:07:49.859Z,947.39
2018-06-16T00:10:16.154Z,947.43
2018-06-16T00:12:42.455Z,947.41
2018-06-16T00:15:08.773Z,947.40
2018-06-16T00:17:35.094Z,947.34
2018-06-16T00:20:01.384Z,947.32
2018-06-16T00:22:27.671Z,947.35
2018-06-16T00:24:53.965Z,947.31
2018-06-16T00:27:20.249Z,947.25
2018-06-16T00:29:46.569Z,947.29
2018-06-16T00:32:12.858Z,947.23
2018-06-16T00:34:39.144Z,947.26
2018-06-16T00:37:05.443Z,947.34
2018-06-16T00:39:31.744Z,947.34
2018-06-16T00:41:58.028Z,947.37
2018-06-16T00:44:24.319Z,947.30
2018-06-16T00:46:50.656Z,947.33
2018-06-16T00:49:16.950Z,947.30
2018-06-16T00:51:43.241Z,947.33
2018-06-16T00:54:09.537Z,947.28
2018-06-16T00:56:35.836Z,947.29
2018-06-16T00:59:02.170Z,947.30
2018-06-16T01:01:28.465Z,947.37
2018-06-16T01:03:54.790Z,947.33
2018-06-16T01:06:21.121Z,947.38
2018-06-16T01:08:47.416Z,947.34
2018-06-16T01:11:13.703Z,947.41
2018-06-16T01:13:40.081Z,947.38
2018-06-16T01:16:06.339Z,947.42
2018-06-16T01:18:32.633Z,947.37
2018-06-16T01:20:58.931Z,947.35
2018-06-16T01:23:25.223Z,947.36
2018-06-16T01:25:51.526Z,947.39
2018-06-16T01:28:17.822Z,947.42
2018-06-16T01:30:44.111Z,947.40
2018-06-16T01:33:10.412Z,947.43
2018-06-16T01:35:36.708Z,947.44
2018-06-16T01:38:03.003Z,947.47
2018-06-16T01:40:29.306Z,947.44
2018-06-16T01:42:55.594Z,947.56
2018-06-16T01:45:21.884Z,947.46
2018-06-16T01:47:48.177Z,947.44
2018-06-16T01:50:14.479Z,947.46
2018-06-16T01:52:40.810Z,947.51
2018-06-16T01:55:07.100Z,947.50
2018-06-16T01:57:33.398Z,947.48
2018-06-16T01:59:59.694Z,947.51
2018-06-16T02:02:25.990Z,947.54
2018-06-16T02:04:52.285Z,947.55
2018-06-16T02:07:18.583Z,947.58
2018-06-16T02:09:44.871Z,947.53
2018-06-16T02:12:11.162Z,947.54
2018-06-16T02:14:37.461Z,947.48
2018-06-16T02:17:03.757Z,947.50
2018-06-16T02:19:30.060Z,947.52
2018-06-16T02:21:56.377Z,947.46
2018-06-16T02:24:22.671Z,947.52
2018-06-16T02:26:48.963Z,947.49
2018-06-16T02:29:15.298Z,947.50
2018-06-16T02:31:41.592Z,947.46
2018-06-16T02:34:07.915Z,947.48
2018-06-16T02:36:34.205Z,947.47
2018-06-16T02:39:00.498Z,947.52
2018-06-16T02:41:26.795Z,947.49
2018-06-16T02:43:53.088Z,947.54
2018-06-16T02:46:19.408Z,947.44
2018-06-16T02:48:45.704Z,947.46
2018-06-16T02:51:11.995Z,947.47
2018-06-16T02:53:38.294Z,947.48
2018-06-16T02:56:04.596Z,947.46
2018-06-16T02:58:30.936Z,947.54
2018-06-16T03:00:57.235Z,947.52
2018-06-16T03:03:23.570Z,947.47
2018-06-16T03:05:49.834Z,947.52
2018-06-16T03:08:16.127Z,947.58
2018-06-16T03:10:42.420Z,947.64
2018-06-16T03:13:08.720Z,947.67
2018-06-16T03:15:35.020Z,947.63
2018-06-16T03:18:01.325Z,947.67
2018-06-16T03:20:27.615Z,947.69
2018-06-16T03:22:53.913Z,947.75
2018-06-16T03:25:20.206Z,947.74
2018-06-16T03:27:46.505Z,947.75
2018-06-16T03:30:12.814Z,947.82
2018-06-16T03:32:39.103Z,947.76
2018-06-16T03:35:05.407Z,947.71
2018-06-16T03:37:31.704Z,947.75
2018-06-16T03:39:57.998Z,947.78
2018-06-16T03:42:24.290Z,947.82
2018-06-16T03:44:50.615Z,947.85
2018-06-16T03:47:16.905Z,947.82
2018-06-16T03:49:43.197Z,947.83
2018-06-16T03:52:09.492Z,947.75
2018-06-16T03:54:35.835Z,947.73
2018-06-16T03:57:02.125Z,947.65
2018-06-16T03:59:28.417Z,947.71
2018-06-16T04:01:54.773Z,947.79
2018-06-16T04:04:20.997Z,947.78
2018-06-16T04:06:47.332Z,947.76
2018-06-16T04:09:13.650Z,947.74
2018-06-16T04:11:39.912Z,947.71
2018-06-16T04:14:06.205Z,947.77
2018-06-16T04:16:32.542Z,947.76
2018-06-16T04:18:58.868Z,947.80
2018-06-16T04:21:25.168Z,947.74
2018-06-16T04:23:51.459Z,947.76
2018-06-16T04:26:17.750Z,947.74
2018-06-16T04:28:44.044Z,947.69
2018-06-16T04:31:10.365Z,947.67
2018-06-16T04:33:36.663Z,947.63
2018-06-16T04:36:02.957Z,947.68
2018-06-16T04:38:29.302Z,947.70
2018-06-16T04:40:55.590Z,947.68
2018-06-16T04:43:21.883Z,947.74
2018-06-16T04:45:48.245Z,947.80
2018-06-16T04:48:14.473Z,947.76
2018-06-16T04:50:40.793Z,947.80
2018-06-16T04:53:07.086Z,947.80
2018-06-16T04:55:33.377Z,947.81
2018-06-16T04:57:59.674Z,947.85
2018-06-16T05:00:25.971Z,947.81
2018-06-16T05:02:52.271Z,947.78
2018-06-16T05:05:18.551Z,947.83
2018-06-16T05:07:44.888Z,947.80
2018-06-16T05:10:11.187Z,947.74
2018-06-16T05:12:37.515Z,947.70
2018-06-16T05:15:03.813Z,947.74
2018-06-16T05:17:30.111Z,947.71
2018-06-16T05:19:56.412Z,947.69
2018-06-16T05:22:22.717Z,947.74
2018-06-16T05:24:49.008Z,947.77
2018-06-16T05:27:15.302Z,947.81
2018-06-16T05:29:41.596Z,947.88
2018-06-16T05:32:07.893Z,947.89
2018-06-16T05:34:34.183Z,947.87
2018-06-16T05:37:00.471Z,947.90
2018-06-16T05:39:26.773Z,947.93
2018-06-16T05:41:53.075Z,947.96
2018-06-16T05:44:19.369Z,947.97
2018-06-16T05:46:45.667Z,948.00
2018-06-16T05:49:11.965Z,947.99
2018-06-16T05:51:38.252Z,948.03
2018-06-16T05:54:04.568Z,947.97
2018-06-16T05:56:30.837Z,948.00
2018-06-16T05:58:57.135Z,947.99
2018-06-16T06:01:23.477Z,947.96
2018-06-16T06:03:49.764Z,948.01
2018-06-16T06:06:16.051Z,948.06
2018-06-16T06:08:42.353Z,948.02
2018-06-16T06:11:08.650Z,948.05
2018-06-16T06:13:34.982Z,948.01
2018-06-16T06:16:01.278Z,948.07
2018-06-16T06:18:27.600Z,948.10
2018-06-16T06:20:53.893Z,948.15
2018-06-16T06:23:20.194Z,948.12
2018-06-16T06:25:46.489Z,948.04
2018-06-16T06:28:12.794Z,948.03
2018-06-16T06:30:39.091Z,947.90
2018-06-16T06:33:05.488Z,947.92
2018-06-16T06:35:31.844Z,947.94
2018-06-16T06:37:58.225Z,947.99
2018-06-16T06:40:24.512Z,947.99
2018-06-16T06:42:50.803Z,948.01
2018-06-16T06:45:17.097Z,948.05
2018-06-16T06:47:43.392Z,947.95
2018-06-16T06:50:09.684Z,947.99
2018-06-16T06:52:35.977Z,947.85
2018-06-16T06:55:02.278Z,947.88
2018-06-16T06:57:28.569Z,947.88
2018-06-16T06:59:54.880Z,947.85
2018-06-16T07:02:21.171Z,947.95
2018-06-16T07:04:47.459Z,947.98
2018-06-16T07:07:13.800Z,947.88
2018-06-16T07:09:40.100Z,947.90
2018-06-16T07:12:06.435Z,947.79
2018-06-16T07:14:32.732Z,947.87
2018-06-16T07:16:59.020Z,947.84
2018-06-16T07:19:25.355Z,947.82
2018-06-16T07:21:51.713Z,947.82
2018-06-16T07:24:18.044Z,947.87
2018-06-16T07:26:44.390Z,947.84
2018-06-16T07:29:10.687Z,947.88
2018-06-16T07:31:36.988Z,947.86
2018-06-16T07:34:03.499Z,947.87
2018-06-16T07:36:29.812Z,947.79
2018-06-16T07:38:56.116Z,947.76
2018-06-16T07:41:22.626Z,947.71
2018-06-16T07:43:48.887Z,947.73
2018-06-16T07:46:15.177Z,947.73
2018-06-16T07:48:41.468Z,947.75
2018-06-16T07:51:07.768Z,947.76
2018-06-16T07:53:34.064Z,947.78
2018-06-16T07:56:00.363Z,947.68
2018-06-16T07:58:26.651Z,947.72
2018-06-16T08:00:52.950Z,947.80
2018-06-16T08:03:19.281Z,947.75
2018-06-16T08:05:45.614Z,947.78
2018-06-16T08:08:11.916Z,947.75
2018-06-16T08:10:38.211Z,947.83
2018-06-16T08:13:04.560Z,947.83
2018-06-16T08:15:30.849Z,947.74
2018-06-16T08:17:57.213Z,947.72
2018-06-16T08:20:23.443Z,947.76
2018-06-16T08:22:49.774Z,947.84
2018-06-16T08:25:16.087Z,947.71
2018-06-16T08:27:42.376Z,947.77
2018-06-16T08:30:08.698Z,947.78
2018-06-16T08:32:34.984Z,947.80
2018-06-16T08:35:01.279Z,947.64
2018-06-16T08:37:27.572Z,947.72
2018-06-16T08:39:53.860Z,947.73
2018-06-16T08:42:20.157Z,947.74
2018-06-16T08:44:46.444Z,947.79
2018-06-16T08:47:12.733Z,947.80
2018-06-16T08:49:39.030Z,947.82
2018-06-16T08:52:05.326Z,947.81
2018-06-16T08:54:31.647Z,947.81
2018-06-16T08:56:57.941Z,947.81
2018-06-16T08:59:24.261Z,947.78
2018-06-16T09:01:50.576Z,947.71
2018-06-16T09:04:16.864Z,947.80
2018-06-16T09:06:43.157Z,947.84
2018-06-16T09:09:09.452Z,947.87
2018-06-16T09:11:35.748Z,947.83
2018-06-16T09:14:02.036Z,947.83
2018-06-16T09:16:28.333Z,947.75
2018-06-16T09:18:54.630Z,947.72
2018-06-16T09:21:20.925Z,947.80
2018-06-16T09:23:47.222Z,947.82
2018-06-16T09:26:13.516Z,947.80
2018-06-16T09:28:39.818Z,947.72
2018-06-16T09:31:06.104Z,947.79
2018-06-16T09:33:32.397Z,947.63
2018-06-16T09:35:58.685Z,947.69
2018-06-16T09:38:24.997Z,947.67
2018-06-16T09:40:51.268Z,947.61
2018-06-16T09:43:17.596Z,947.60
2018-06-16T09:45:43.897Z,947.58
2018-06-16T09:48:10.287Z,947.60
2018-06-16T09:50:36.515Z,947.60
2018-06-16T09:53:02.811Z,947.56
2018-06-16T09:55:29.142Z,947.51
2018-06-16T09:57:55.427Z,947.54
2018-06-16T10:00:21.724Z,947.43
2018-06-16T10:02:48.016Z,947.45
2018-06-16T10:05:14.347Z,947.45
2018-06-16T10:07:40.632Z,947.40
2018-06-16T10:10:06.918Z,947.30
2018-06-16T10:12:33.246Z,947.35
2018-06-16T10:14:59.533Z,947.35
2018-06-16T10:17:25.833Z,947.35
2018-06-16T10:19:52.142Z,947.31
2018-06-16T10:22:18.480Z,947.28
2018-06-16T10:24:44.769Z,947.24
2018-06-16T10:27:11.062Z,947.18
2018-06-16T10:29:37.387Z,947.12
2018-06-16T10:32:03.690Z,947.20
2018-06-16T10:34:29.985Z,947.18
2018-06-16T10:36:56.286Z,947.08
2018-06-16T10:39:22.623Z,947.12
2018-06-16T10:41:48.949Z,947.14
2018-06-16T10:44:15.271Z,947.06
2018-06-16T10:46:41.565Z,947.19
2018-06-16T10:49:07.861Z,947.00
2018-06-16T10:51:34.147Z,946.96
2018-06-16T10:54:00.433Z,946.92
2018-06-16T10:56:26.748Z,946.97
2018-06-16T10:58:53.039Z,947.00
2018-06-16T11:01:19.325Z,947.06
2018-06-16T11:03:45.625Z,947.09
2018-06-16T11:06:11.961Z,946.97
2018-06-16T11:08:38.248Z,946.88
2018-06-16T11:11:04.537Z,946.92
2018-06-16T11:13:30.832Z,946.87
2018-06-16T11:15:57.115Z,946.90
2018-06-16T11:18:23.412Z,946.87
2018-06-16T11:20:49.727Z,946.94
2018-06-16T11:23:16.025Z,947.01
2018-06-16T11:25:42.328Z,947.09
2018-06-16T11:28:08.626Z,947.18
2018-06-16T11:30:34.963Z,947.27
2018-06-16T11:33:01.218Z,947.32
2018-06-16T11:35:27.507Z,947.38
2018-06-16T11:37:53.800Z,947.40
2018-06-16T11:40:20.140Z,947.42
2018-06-16T11:42:46.437Z,947.36
2018-06-16T11:45:12.742Z,947.30
2018-06-16T11:47:39.030Z,947.16
2018-06-16T11:50:05.337Z,947.23
2018-06-16T11:52:31.657Z,947.25
2018-06-16T11:54:57.946Z,947.26
2018-06-16T11:57:24.245Z,947.21
2018-06-16T11:59:50.548Z,947.22
2018-06-16T12:02:16.840Z,947.22
2018-06-16T12:04:43.135Z,947.16
2018-06-16T12:07:09.472Z,947.28
2018-06-16T12:09:35.770Z,947.22
2018-06-16T12:12:02.061Z,947.25
2018-06-16T12:14:28.368Z,947.23
2018-06-16T12:16:54.650Z,947.23
2018-06-16T12:19:20.940Z,947.22
2018-06-16T12:21:47.271Z,947.20
2018-06-16T12:24:13.566Z,947.22
2018-06-16T12:26:39.855Z,947.35
2018-06-16T12:29:06.149Z,947.44
2018-06-16T12:31:32.446Z,947.57
2018-06-16T12:33:58.731Z,947.55
2018-06-16T12:36:25.029Z,947.58
2018-06-16T12:38:51.330Z,947.71
2018-06-16T12:41:17.642Z,947.78
2018-06-16T12:43:43.932Z,947.97
2018-06-16T12:46:10.220Z,948.13
2018-06-16T12:48:36.519Z,948.30
2018-06-16T12:51:02.816Z,948.46
2018-06-16T12:53:29.116Z,948.61
2018-06-16T12:55:55.414Z,948.74
2018-06-16T12:58:21.769Z,949.07
2018-06-16T13:00:48.072Z,949.14
2018-06-16T13:03:14.366Z,949.13
2018-06-16T13:05:40.694Z,949.29
2018-06-16T13:08:06.994Z,949.45
2018-06-16T13:10:33.292Z,949.55
2018-06-16T13:12:59.591Z,949.48
2018-06-16T13:15:25.889Z,949.59
2018-06-16T13:17:52.188Z,950.01
2018-06-16T13:20:18.489Z,950.22
2018-06-16T13:22:44.828Z,950.02
2018-06-16T13:25:11.126Z,950.07
2018-06-16T13:27:37.439Z,950.37
2018-06-16T13:30:03.730Z,950.18
2018-06-16T13:32:30.033Z,950.14
2018-06-16T13:34:56.334Z,950.24
2018-06-16T13:37:22.629Z,950.22
2018-06-16T13:39:48.931Z,950.27
2018-06-16T13:42:15.228Z,950.36
2018-06-16T13:44:41.556Z,950.38
2018-06-16T13:47:07.857Z,950.42
2018-06-16T13:49:34.148Z,950.29
2018-06-16T13:52:00.445Z,950.28
2018-06-16T13:54:26.773Z,950.20
2018-06-16T13:56:53.077Z,950.14
2018-06-16T13:59:19.371Z,950.15
2018-06-16T14:01:45.713Z,950.12
2018-06-16T14:04:12.018Z,950.02
2018-06-16T14:06:38.302Z,950.05
2018-06-16T14:09:04.600Z,949.92
2018-06-16T14:11:30.901Z,949.91
2018-06-16T14:13:57.198Z,949.69
2018-06-16T14:16:23.492Z,949.63
2018-06-16T14:18:49.794Z,949.45
2018-06-16T14:21:16.090Z,949.40
2018-06-16T14:23:42.400Z,949.35
2018-06-16T14:26:08.697Z,949.37
2018-06-16T14:28:35.003Z,949.33
2018-06-16T14:31:01.322Z,949.30
2018-06-16T14:33:27.639Z,949.22
2018-06-16T14:35:53.944Z,949.09
2018-06-16T14:38:20.266Z,949.04
2018-06-16T14:40:46.553Z,948.95
2018-06-16T14:43:12.847Z,948.78
2018-06-16T14:45:39.152Z,948.71
2018-06-16T14:48:05.450Z,948.70
2018-06-16T14:50:31.749Z,948.62
2018-06-16T14:52:58.070Z,948.48
2018-06-16T14:55:24.365Z,948.37
2018-06-16T14:57:50.656Z,948.28
2018-06-16T15:00:16.978Z,948.25
2018-06-16T15:02:43.294Z,948.22
2018-06-16T15:05:09.656Z,948.27
2018-06-16T15:07:35.925Z,948.23
2018-06-16T15:10:02.227Z,948.26
2018-06-16T15:12:28.522Z,948.19
2018-06-16T15:14:54.826Z,948.12
2018-06-16T15:17:21.117Z,948.18
2018-06-16T15:19:47.438Z,948.14
2018-06-16T15:22:13.732Z,948.06
2018-06-16T15:24:40.028Z,948.07
2018-06-16T15:27:06.365Z,948.05
2018-06-16T15:29:32.657Z,948.02
2018-06-16T15:31:58.952Z,947.97
2018-06-16T15:34:25.246Z,947.89
2018-06-16T15:36:51.543Z,947.91
2018-06-16T15:39:18.213Z,947.90
2018-06-16T15:41:44.505Z,947.95
2018-06-16T15:44:10.837Z,947.94
2018-06-16T15:46:37.234Z,947.96
2018-06-16T15:49:03.466Z,947.86
2018-06-16T15:51:29.762Z,947.92
2018-06-16T15:53:56.060Z,947.92
2018-06-16T15:56:22.349Z,947.99
2018-06-16T15:58:48.706Z,948.02
2018-06-16T16:01:15.001Z,948.02
2018-06-16T16:03:41.294Z,948.04
2018-06-16T16:06:07.594Z,948.07
2018-06-16T16:08:33.885Z,948.16
2018-06-16T16:11:00.211Z,948.18
2018-06-16T16:13:26.508Z,948.21
2018-06-16T16:15:52.802Z,948.28
2018-06-16T16:18:19.107Z,948.35
2018-06-16T16:20:45.400Z,948.33
2018-06-16T16:23:11.727Z,948.31
2018-06-16T16:25:38.017Z,948.29
2018-06-16T16:28:04.322Z,948.32
2018-06-16T16:30:30.651Z,948.39
2018-06-16T16:32:58.639Z,948.40
2018-06-16T16:35:23.282Z,948.45
2018-06-16T16:37:49.587Z,948.48
2018-06-16T16:40:15.889Z,948.57
2018-06-16T16:42:42.200Z,948.57
2018-06-16T16:45:08.509Z,948.57
2018-06-16T16:47:34.793Z,948.65
2018-06-16T16:50:01.122Z,948.70
2018-06-16T16:52:27.414Z,948.77
2018-06-16T16:54:53.711Z,948.78
2018-06-16T16:57:20.006Z,948.71
2018-06-16T16:59:46.302Z,948.74
2018-06-16T17:02:12.620Z,948.64
2018-06-16T17:04:38.918Z,948.65
2018-06-16T17:07:05.214Z,948.80
2018-06-16T17:09:31.744Z,948.84
2018-06-16T17:11:58.025Z,949.12
2018-06-16T17:14:24.358Z,949.02
2018-06-16T17:16:50.653Z,949.07
2018-06-16T17:19:16.956Z,948.90
2018-06-16T17:21:43.489Z,948.90
2018-06-16T17:24:09.781Z,948.80
2018-06-16T17:26:36.100Z,948.74
2018-06-16T17:29:02.404Z,948.75
2018-06-16T17:31:28.707Z,948.81
2018-06-16T17:33:54.996Z,948.82
2018-06-16T17:36:21.292Z,948.83
2018-06-16T17:38:47.664Z,948.86
2018-06-16T17:41:13.967Z,948.81
2018-06-16T17:43:40.263Z,948.82
2018-06-16T17:46:06.603Z,948.79
2018-06-16T17:48:32.961Z,948.78
2018-06-16T17:50:59.252Z,948.78
2018-06-16T17:53:25.564Z,948.79
2018-06-16T17:55:51.858Z,948.78
2018-06-16T17:58:18.259Z,948.77
2018-06-16T18:00:44.561Z,948.77
2018-06-16T18:03:10.850Z,948.78
2018-06-16T18:05:37.185Z,948.74
2018-06-16T18:08:03.478Z,948.82
2018-06-16T18:10:29.769Z,948.84
2018-06-16T18:12:56.084Z,948.85
2018-06-16T18:15:22.389Z,948.87
2018-06-16T18:17:48.831Z,948.83
2018-06-16T18:20:15.051Z,948.90
2018-06-16T18:22:41.354Z,948.99
2018-06-16T18:25:07.657Z,949.00
2018-06-16T18:27:33.987Z,949.01
2018-06-16T18:30:00.320Z,949.02
2018-06-16T18:32:26.612Z,949.11
2018-06-16T18:34:52.910Z,949.15
2018-06-16T18:37:19.217Z,949.20
2018-06-16T18:39:45.519Z,949.24
2018-06-16T18:42:11.844Z,949.25
2018-06-16T18:44:38.137Z,949.31
2018-06-16T18:47:04.428Z,949.31
2018-06-16T18:49:30.762Z,949.33
2018-06-16T18:51:57.055Z,949.38
2018-06-16T18:54:23.350Z,949.41
2018-06-16T18:56:49.654Z,949.45
2018-06-16T18:59:15.941Z,949.45
2018-06-16T19:01:42.268Z,949.52
2018-06-16T19:04:08.618Z,949.55
2018-06-16T19:06:34.872Z,949.56
2018-06-16T19:09:01.194Z,949.57
2018-06-16T19:11:27.492Z,949.61
2018-06-16T19:13:54.646Z,949.67
2018-06-16T19:16:20.985Z,949.68
2018-06-16T19:18:47.279Z,949.79
2018-06-16T19:21:13.568Z,949.87
2018-06-16T19:23:40.941Z,949.94
2018-06-16T19:26:07.236Z,949.89
2018-06-16T19:28:33.582Z,949.95
2018-06-16T19:30:59.863Z,949.94
2018-06-16T19:33:26.157Z,949.98
2018-06-16T19:35:52.444Z,950.07
2018-06-16T19:38:18.749Z,950.06
2018-06-16T19:40:45.038Z,950.10
2018-06-16T19:43:11.384Z,950.10
2018-06-16T19:45:37.666Z,950.15
2018-06-16T19:48:03.963Z,950.14
2018-06-16T19:50:30.315Z,950.06
2018-06-16T19:52:56.620Z,950.09
2018-06-16T19:55:22.910Z,950.08
2018-06-16T19:57:49.212Z,950.09
2018-06-16T20:00:15.510Z,950.07
2018-06-16T20:02:41.843Z,950.10
2018-06-16T20:05:08.150Z,950.12
2018-06-16T20:07:34.447Z,950.16
2018-06-16T20:10:00.741Z,950.22
2018-06-16T20:12:27.043Z,950.20
2018-06-16T20:14:53.369Z,950.25
2018-06-16T20:17:19.700Z,950.18
2018-06-16T20:19:45.961Z,950.14
2018-06-16T20:22:12.256Z,950.14
2018-06-16T20:24:38.544Z,950.01
2018-06-16T20:27:04.875Z,950.02
2018-06-16T20:29:31.177Z,950.02
2018-06-16T20:31:57.468Z,949.92
2018-06-16T20:34:23.762Z,949.90
2018-06-16T20:36:50.053Z,949.92
2018-06-16T20:39:16.384Z,949.92
2018-06-16T20:41:42.675Z,949.97
2018-06-16T20:44:08.972Z,950.02
2018-06-16T20:46:35.270Z,950.06
2018-06-16T20:49:01.567Z,950.15
2018-06-16T20:51:27.896Z,950.11
2018-06-16T20:53:54.195Z,950.22
2018-06-16T20:56:20.496Z,950.23
2018-06-16T20:58:46.825Z,950.18
2018-06-16T21:01:13.122Z,950.15
2018-06-16T21:03:39.422Z,950.22
2018-06-16T21:06:05.742Z,950.28
2018-06-16T21:08:32.040Z,950.31
2018-06-16T21:10:58.335Z,950.29
2018-06-16T21:13:24.685Z,950.30
2018-06-16T21:15:50.982Z,950.28
2018-06-16T21:18:17.282Z,950.30
2018-06-16T21:20:43.606Z,950.29
2018-06-16T21:23:09.896Z,950.22
2018-06-16T21:25:36.204Z,950.18
2018-06-16T21:28:02.539Z,950.12
2018-06-16T21:30:28.841Z,950.07
2018-06-16T21:32:55.141Z,949.97
2018-06-16T21:35:21.480Z,950.00
2018-06-16T21:37:47.785Z,949.94
2018-06-16T21:40:14.073Z,949.94
2018-06-16T21:42:40.402Z,949.93
2018-06-16T21:45:06.702Z,949.90
2018-06-16T21:47:32.998Z,949.90
2018-06-16T21:49:59.295Z,949.88
2018-06-16T21:52:25.605Z,949.93
2018-06-16T21:54:51.934Z,949.88
2018-06-16T21:57:18.234Z,949.84
2018-06-16T21:59:44.526Z,949.94
2018-06-16T22:02:10.858Z,949.89
2018-06-16T22:04:37.156Z,949.94
2018-06-16T22:07:03.449Z,949.99
2018-06-16T22:09:30.098Z,950.00
2018-06-16T22:11:56.388Z,949.99
2018-06-16T22:14:22.735Z,949.96
2018-06-16T22:16:49.020Z,950.00
2018-06-16T22:19:15.313Z,950.06
2018-06-16T22:21:41.640Z,950.05
2018-06-16T22:24:07.949Z,950.04
2018-06-16T22:26:34.246Z,950.02
2018-06-16T22:29:00.552Z,949.99
2018-06-16T22:31:26.842Z,949.95
2018-06-16T22:33:53.178Z,949.87
2018-06-16T22:36:19.509Z,950.01
2018-06-16T22:38:45.770Z,950.03
2018-06-16T22:41:12.072Z,950.10
2018-06-16T22:43:38.371Z,950.15
2018-06-16T22:46:04.692Z,950.20
2018-06-16T22:48:30.993Z,950.22
2018-06-16T22:50:57.289Z,950.19
2018-06-16T22:53:23.612Z,950.19
2018-06-16T22:55:49.913Z,950.11
2018-06-16T22:58:16.241Z,950.03
2018-06-16T23:00:42.534Z,949.96
2018-06-16T23:03:08.832Z,949.95
2018-06-16T23:05:35.140Z,949.92
2018-06-16T23:08:01.439Z,949.98
2018-06-16T23:10:27.765Z,949.95
2018-06-16T23:12:54.061Z,949.99
2018-06-16T23:15:20.369Z,949.94
2018-06-16T23:17:46.662Z,949.90
2018-06-16T23:20:12.959Z,949.95
2018-06-16T23:22:39.286Z,949.89
2018-06-16T23:25:05.576Z,949.93
2018-06-16T23:27:31.866Z,949.91
2018-06-16T23:29:58.162Z,949.90
2018-06-16T23:32:24.462Z,949.89
2018-06-16T23:34:50.789Z,949.87
2018-06-16T23:37:17.085Z,949.84
2018-06-16T23:39:43.373Z,949.90
2018-06-16T23:42:09.670Z,949.89
2018-06-16T23:44:35.981Z,949.99
2018-06-16T23:47:02.320Z,950.09
2018-06-16T23:49:28.608Z,950.14
2018-06-16T23:51:54.900Z,950.12
2018-06-16T23:54:21.196Z,950.12
2018-06-16T23:56:47.486Z,950.07
2018-06-16T23:59:13.819Z,950.09
